Time;durP1;ratioP1;P1;durP2;ratioP2;P2;SDS_P1;SDS_P2;PMS_P1;PMS_P2;Temp;Humidity;BMP_temperature;BMP_pressure;BME280_temperature;BME280_humidity;BME280_pressure;Samples;Min_cycle;Max_cycle;Signal;HPM_P1;HPM_P2
2023/01/01 00:01:40;;;;;;;26.57;13.20;;;13.90;99.90;;;;;;5032381;28;20229;-82
2023/01/01 00:04:12;;;;;;;28.40;11.70;;;13.80;99.90;;;;;;5032339;28;20202;-81
2023/01/01 00:06:39;;;;;;;26.57;12.87;;;13.80;99.90;;;;;;5032036;28;20233;-80
2023/01/01 00:11:50;;;;;;;28.33;10.50;;;13.70;99.90;;;;;;5031744;28;20220;-82
2023/01/01 00:14:17;;;;;;;29.00;11.47;;;13.70;99.90;;;;;;5032041;28;20277;-81
2023/01/01 00:16:44;;;;;;;23.67;9.47;;;13.60;99.90;;;;;;5032567;28;20734;-81
2023/01/01 00:19:13;;;;;;;22.63;8.70;;;13.60;99.90;;;;;;5031485;28;20232;-81
2023/01/01 00:21:40;;;;;;;20.53;7.53;;;13.50;99.90;;;;;;5032628;28;20486;-81
2023/01/01 00:24:07;;;;;;;24.73;7.83;;;13.60;99.90;;;;;;5032256;28;20202;-80
2023/01/01 00:26:34;;;;;;;25.30;7.40;;;13.50;99.90;;;;;;5031911;28;20206;-80
2023/01/01 00:29:01;;;;;;;20.93;6.47;;;13.50;99.90;;;;;;5032575;28;20487;-81
2023/01/01 00:31:28;;;;;;;19.57;7.00;;;13.50;99.90;;;;;;5031947;28;20202;-80
2023/01/01 00:33:56;;;;;;;24.87;8.77;;;13.60;99.90;;;;;;5032050;28;20282;-81
2023/01/01 00:36:27;;;;;;;25.50;6.93;;;13.60;99.90;;;;;;5052264;28;20205;-81
2023/01/01 00:38:54;;;;;;;20.93;8.10;;;13.60;99.90;;;;;;5050340;28;20214;-80
2023/01/01 00:41:22;;;;;;;19.00;6.67;;;13.60;99.90;;;;;;5047409;28;20234;-80
2023/01/01 00:43:49;;;;;;;18.90;7.10;;;13.60;99.90;;;;;;5049858;28;20757;-81
2023/01/01 00:46:16;;;;;;;21.43;9.53;;;13.60;99.90;;;;;;5050160;28;20296;-81
2023/01/01 00:48:43;;;;;;;23.57;9.47;;;13.60;99.90;;;;;;5050900;28;20198;-82
2023/01/01 00:51:10;;;;;;;27.87;10.40;;;13.60;99.90;;;;;;5049697;28;20501;-82
2023/01/01 00:53:38;;;;;;;22.23;8.30;;;13.50;99.90;;;;;;5050262;28;20308;-80
2023/01/01 00:56:06;;;;;;;22.90;8.23;;;13.50;99.90;;;;;;5051198;28;20289;-80
2023/01/01 00:58:33;;;;;;;24.10;7.43;;;13.40;99.90;;;;;;5049433;28;20685;-78
2023/01/01 01:00:59;;;;;;;21.83;7.20;;;13.50;99.90;;;;;;5047496;28;20202;-80
2023/01/01 01:03:29;;;;;;;23.83;9.00;;;13.40;99.90;;;;;;5050970;28;20256;-80
2023/01/01 01:06:11;;;;;;;17.67;6.80;;;13.40;99.90;;;;;;5051470;28;20202;-81
2023/01/01 01:08:41;;;;;;;22.13;7.13;;;13.40;99.90;;;;;;5051612;28;20193;-80
2023/01/01 01:11:10;;;;;;;23.57;7.30;;;13.40;99.90;;;;;;5053744;28;20273;-81
2023/01/01 01:13:38;;;;;;;21.57;6.70;;;13.30;99.90;;;;;;5052206;28;20501;-78
2023/01/01 01:16:09;;;;;;;20.70;7.30;;;13.30;99.90;;;;;;5054686;28;20252;-80
2023/01/01 01:18:36;;;;;;;25.20;6.07;;;13.20;99.90;;;;;;5069866;22;20229;-81
2023/01/01 01:21:04;;;;;;;20.70;5.97;;;13.20;99.90;;;;;;5072937;28;20197;-82
2023/01/01 01:23:31;;;;;;;18.97;6.13;;;13.10;99.90;;;;;;5073933;28;20304;-81
2023/01/01 01:26:13;;;;;;;17.47;5.30;;;13.10;99.90;;;;;;5073700;28;20212;-80
2023/01/01 01:28:40;;;;;;;22.97;6.30;;;13.10;99.90;;;;;;5055069;28;20288;-81
2023/01/01 01:31:07;;;;;;;21.67;6.63;;;13.10;99.90;;;;;;5055888;28;20692;-84
2023/01/01 01:33:34;;;;;;;23.37;6.30;;;13.10;99.90;;;;;;5064688;28;20205;-80
2023/01/01 01:36:02;;;;;;;26.40;6.37;;;13.10;99.90;;;;;;5075300;28;20197;-81
2023/01/01 01:38:29;;;;;;;22.33;5.80;;;13.10;99.90;;;;;;5075740;28;20284;-80
2023/01/01 01:40:56;;;;;;;19.93;5.57;;;13.10;99.90;;;;;;5075329;28;20299;-81
2023/01/01 01:43:45;;;;;;;18.13;5.63;;;13.10;99.90;;;;;;5059498;28;20226;-82
2023/01/01 01:46:14;;;;;;;17.50;4.77;;;13.20;99.90;;;;;;5054469;28;20289;-79
2023/01/01 01:48:45;;;;;;;16.23;5.30;;;13.20;99.90;;;;;;5053288;28;20233;-81
2023/01/01 01:51:16;;;;;;;16.93;5.10;;;13.20;99.90;;;;;;5054371;28;20189;-83
2023/01/01 01:53:47;;;;;;;21.00;5.30;;;13.30;99.90;;;;;;5054598;28;20591;-83
2023/01/01 01:56:19;;;;;;;18.80;5.27;;;13.40;99.90;;;;;;5055475;28;20197;-83
2023/01/01 01:58:47;;;;;;;16.73;5.33;;;13.50;99.90;;;;;;5055720;28;20295;-82
2023/01/01 02:01:14;;;;;;;16.77;5.77;;;13.50;99.90;;;;;;5055713;28;20202;-83
2023/01/01 02:03:46;;;;;;;20.80;5.83;;;13.60;99.90;;;;;;5054693;28;20214;-81
2023/01/01 02:06:13;;;;;;;16.40;5.43;;;13.60;99.90;;;;;;5055389;28;20281;-80
2023/01/01 02:08:40;;;;;;;17.07;4.77;;;13.70;99.90;;;;;;5055545;28;20209;-81
2023/01/01 02:11:07;;;;;;;23.77;5.90;;;13.70;99.90;;;;;;5055106;28;20198;-82
2023/01/01 02:13:34;;;;;;;20.60;5.77;;;13.80;99.90;;;;;;5055291;28;20194;-83
2023/01/01 02:16:09;;;;;;;19.63;6.30;;;13.80;99.90;;;;;;5064722;28;20316;-83
2023/01/01 02:18:43;;;;;;;21.40;5.40;;;13.80;99.90;;;;;;5074325;28;20259;-83
2023/01/01 02:21:14;;;;;;;15.77;4.77;;;13.80;99.90;;;;;;5060796;28;20249;-83
2023/01/01 02:24:00;;;;;;;15.87;4.40;;;13.80;99.90;;;;;;5054281;28;20253;-82
2023/01/01 02:26:44;;;;;;;17.13;4.70;;;13.80;99.90;;;;;;5071683;28;20197;-81
2023/01/01 02:29:25;;;;;;;17.97;4.90;;;13.70;99.90;;;;;;5069018;28;20201;-84
2023/01/01 02:31:59;;;;;;;17.23;4.67;;;13.70;99.90;;;;;;5074976;28;20661;-83
2023/01/01 02:34:33;;;;;;;26.47;5.50;;;13.70;99.90;;;;;;5074523;28;20555;-84
2023/01/01 02:37:01;;;;;;;22.97;5.63;;;13.60;99.90;;;;;;5075501;28;20240;-85
2023/01/01 02:39:33;;;;;;;19.70;4.93;;;13.50;99.90;;;;;;5074642;28;20684;-81
2023/01/01 02:42:02;;;;;;;14.37;5.03;;;13.50;99.90;;;;;;5075166;28;20487;-83
2023/01/01 02:44:34;;;;;;;18.53;5.57;;;13.40;99.90;;;;;;5055346;28;20221;-82
2023/01/01 02:47:08;;;;;;;21.17;6.17;;;13.40;99.90;;;;;;5055168;28;20198;-82
2023/01/01 02:49:39;;;;;;;16.93;4.93;;;13.30;99.90;;;;;;5054713;28;20499;-82
2023/01/01 02:52:11;;;;;;;18.40;4.80;;;13.30;99.90;;;;;;5074520;28;20288;-83
2023/01/01 02:54:46;;;;;;;17.70;5.00;;;13.30;99.90;;;;;;5067233;28;20201;-83
2023/01/01 02:57:24;;;;;;;15.83;5.17;;;13.30;99.90;;;;;;5054363;28;20582;-85
2023/01/01 03:00:26;;;;;;;21.43;4.67;;;13.30;99.90;;;;;;5054563;28;20193;-83
2023/01/01 03:03:18;;;;;;;20.70;5.20;;;13.30;99.90;;;;;;5054955;28;20296;-84
2023/01/01 03:08:49;;;;;;;23.20;6.07;;;13.10;99.90;;;;;;5054937;28;20813;-84
2023/01/01 03:11:19;;;;;;;19.10;5.10;;;13.00;99.90;;;;;;5054500;28;20276;-84
2023/01/01 03:13:54;;;;;;;23.57;6.23;;;12.90;99.90;;;;;;5070248;28;20284;-84
2023/01/01 03:16:27;;;;;;;24.93;6.37;;;12.90;99.90;;;;;;5073822;28;20628;-82
2023/01/01 03:19:10;;;;;;;22.37;6.67;;;12.90;99.90;;;;;;5072508;28;20316;-83
2023/01/01 03:21:41;;;;;;;21.70;5.50;;;12.80;99.90;;;;;;5053341;28;20205;-82
2023/01/01 03:24:12;;;;;;;30.37;7.33;;;12.80;99.90;;;;;;5054112;28;20210;-83
2023/01/01 03:26:40;;;;;;;21.17;5.43;;;12.80;99.90;;;;;;5053882;28;20661;-84
2023/01/01 03:29:11;;;;;;;23.80;5.33;;;12.80;99.90;;;;;;5064447;28;20240;-82
2023/01/01 03:31:42;;;;;;;21.23;6.27;;;12.80;99.90;;;;;;5073926;28;20223;-83
2023/01/01 03:34:17;;;;;;;23.10;5.30;;;12.80;99.90;;;;;;5073626;28;20289;-84
2023/01/01 03:36:48;;;;;;;23.83;5.73;;;12.80;99.90;;;;;;5073021;28;20253;-82
2023/01/01 03:39:20;;;;;;;22.73;6.83;;;12.80;99.90;;;;;;5073573;28;20197;-82
2023/01/01 03:41:52;;;;;;;22.23;6.03;;;12.80;99.90;;;;;;5068991;28;20197;-83
2023/01/01 03:44:25;;;;;;;25.30;6.23;;;12.70;99.90;;;;;;5053881;28;20521;-82
2023/01/01 03:46:54;;;;;;;24.13;5.83;;;12.60;99.90;;;;;;5054053;28;20972;-83
2023/01/01 03:49:21;;;;;;;24.40;5.73;;;12.50;99.90;;;;;;5053726;28;20205;-84
2023/01/01 03:52:11;;;;;;;18.93;5.27;;;12.50;99.90;;;;;;5053393;28;20504;-84
2023/01/01 03:54:44;;;;;;;22.07;5.40;;;12.50;99.90;;;;;;5052451;28;20186;-84
2023/01/01 03:57:20;;;;;;;20.53;5.03;;;12.40;99.90;;;;;;5053205;28;20198;-83
2023/01/01 03:59:56;;;;;;;19.43;4.80;;;12.40;99.90;;;;;;5069323;28;20235;-81
2023/01/01 04:02:30;;;;;;;22.23;5.60;;;12.30;99.90;;;;;;5071964;28;20696;-82
2023/01/01 04:05:00;;;;;;;20.00;5.17;;;12.30;99.90;;;;;;5073526;28;20284;-84
2023/01/01 04:07:29;;;;;;;19.83;5.43;;;12.40;99.90;;;;;;5073474;28;20215;-83
2023/01/01 04:09:58;;;;;;;21.23;5.43;;;12.30;99.90;;;;;;5073015;28;20205;-83
2023/01/01 04:12:26;;;;;;;27.10;6.00;;;12.30;99.90;;;;;;5072520;28;20349;-83
2023/01/01 04:14:53;;;;;;;25.93;5.50;;;12.20;99.90;;;;;;5073262;28;20217;-82
2023/01/01 04:17:19;;;;;;;21.47;4.93;;;12.20;99.90;;;;;;5073017;28;20200;-83
2023/01/01 04:19:48;;;;;;;29.17;5.60;;;12.10;99.90;;;;;;5066219;28;20281;-82
2023/01/01 04:22:16;;;;;;;25.40;5.80;;;12.10;99.90;;;;;;5053006;28;20245;-84
2023/01/01 04:24:42;;;;;;;26.50;5.90;;;12.00;99.90;;;;;;5053224;28;20213;-83
2023/01/01 04:27:10;;;;;;;26.20;6.40;;;12.00;99.90;;;;;;5053204;28;20273;-83
2023/01/01 04:29:40;;;;;;;19.17;5.87;;;12.00;99.90;;;;;;5059328;28;20205;-82
2023/01/01 04:32:07;;;;;;;24.33;5.63;;;11.90;99.90;;;;;;5052530;28;20263;-84
2023/01/01 04:34:34;;;;;;;24.67;6.30;;;11.90;99.90;;;;;;5052553;28;20812;-82
2023/01/01 04:37:02;;;;;;;27.43;6.53;;;11.90;99.90;;;;;;5053165;28;20230;-84
2023/01/01 04:39:29;;;;;;;24.73;5.27;;;11.80;99.90;;;;;;5052994;28;20673;-81
2023/01/01 04:41:56;;;;;;;24.20;5.03;;;11.80;99.90;;;;;;5052362;28;20823;-83
2023/01/01 04:44:23;;;;;;;29.93;7.90;;;11.80;99.90;;;;;;5052780;28;20285;-83
2023/01/01 04:46:50;;;;;;;24.47;5.47;;;11.80;99.90;;;;;;5053016;28;20198;-83
2023/01/01 04:49:17;;;;;;;25.20;5.30;;;11.80;99.90;;;;;;5052518;28;20647;-83
2023/01/01 04:51:44;;;;;;;31.50;6.40;;;11.70;99.90;;;;;;5071722;28;20207;-83
2023/01/01 04:54:12;;;;;;;28.13;6.27;;;11.70;99.90;;;;;;5064016;28;20202;-81
2023/01/01 04:56:39;;;;;;;23.60;5.73;;;11.70;99.90;;;;;;5053040;28;20285;-82
2023/01/01 04:59:06;;;;;;;29.40;6.20;;;11.60;99.90;;;;;;5052392;28;20232;-82
2023/01/01 05:01:33;;;;;;;32.80;5.70;;;11.60;99.90;;;;;;5067994;28;20262;-82
2023/01/01 05:04:01;;;;;;;31.60;5.80;;;11.60;99.90;;;;;;5071970;28;20304;-82
2023/01/01 05:06:28;;;;;;;30.87;5.80;;;11.60;99.90;;;;;;5072454;28;20514;-83
2023/01/01 05:08:56;;;;;;;30.77;5.77;;;11.50;99.90;;;;;;5054758;28;20285;-87
2023/01/01 05:11:27;;;;;;;30.47;6.20;;;11.50;99.90;;;;;;5052625;28;20636;-81
2023/01/01 05:13:56;;;;;;;27.13;6.00;;;11.50;99.90;;;;;;5053079;28;20198;-82
2023/01/01 05:16:25;;;;;;;26.87;6.53;;;11.50;99.90;;;;;;5072739;28;20308;-84
2023/01/01 05:18:52;;;;;;;26.10;5.83;;;11.50;99.90;;;;;;5071387;28;20233;-82
2023/01/01 05:21:21;;;;;;;37.50;8.20;;;11.40;99.90;;;;;;5055640;28;20209;-82
2023/01/01 05:23:48;;;;;;;33.07;5.90;;;11.40;99.90;;;;;;5051820;28;20317;-84
2023/01/01 05:26:17;;;;;;;22.00;7.20;;;11.40;99.90;;;;;;5051331;28;20522;-85
2023/01/01 05:28:46;;;;;;;30.33;5.63;;;11.40;99.90;;;;;;5052367;28;20209;-81
2023/01/01 05:31:15;;;;;;;35.67;7.60;;;11.30;99.90;;;;;;5057074;28;20300;-82
2023/01/01 05:33:42;;;;;;;28.47;6.17;;;11.30;99.90;;;;;;5052268;28;20674;-84
2023/01/01 05:36:14;;;;;;;24.03;5.53;;;11.40;99.90;;;;;;5052547;28;20204;-82
2023/01/01 05:38:41;;;;;;;35.87;7.80;;;11.40;99.90;;;;;;5052189;28;20257;-82
2023/01/01 05:41:09;;;;;;;31.67;6.23;;;11.40;99.90;;;;;;5052236;28;20226;-82
2023/01/01 05:43:36;;;;;;;30.57;7.37;;;11.40;99.90;;;;;;5052212;28;20304;-83
2023/01/01 05:46:06;;;;;;;29.47;6.97;;;11.40;99.90;;;;;;5052382;28;20204;-84
2023/01/01 05:48:35;;;;;;;30.33;6.23;;;11.40;99.90;;;;;;5060353;28;20552;-82
2023/01/01 05:51:03;;;;;;;37.30;8.93;;;11.40;99.90;;;;;;5072109;28;20542;-84
2023/01/01 05:53:30;;;;;;;29.93;6.40;;;11.40;99.90;;;;;;5074456;28;20236;-83
2023/01/01 05:55:57;;;;;;;31.73;7.63;;;11.40;99.90;;;;;;5073252;28;20209;-82
2023/01/01 05:58:24;;;;;;;35.80;7.03;;;11.40;99.90;;;;;;5076425;28;20200;-83
2023/01/01 06:00:52;;;;;;;35.53;7.70;;;11.40;99.90;;;;;;5076552;28;20569;-82
2023/01/01 06:03:20;;;;;;;30.73;7.80;;;11.40;99.90;;;;;;5075346;28;20260;-82
2023/01/01 06:05:47;;;;;;;31.30;6.97;;;11.40;99.90;;;;;;5076305;28;20543;-85
2023/01/01 06:08:14;;;;;;;28.40;5.90;;;11.40;99.90;;;;;;5076313;28;20239;-82
2023/01/01 06:10:41;;;;;;;36.67;7.47;;;11.40;99.90;;;;;;5075049;28;20585;-85
2023/01/01 06:13:08;;;;;;;29.93;6.40;;;11.40;99.90;;;;;;5076079;28;20284;-82
2023/01/01 06:15:38;;;;;;;28.37;6.63;;;11.40;99.90;;;;;;5075685;28;20245;-78
2023/01/01 06:18:05;;;;;;;30.80;6.60;;;11.30;99.90;;;;;;5067269;28;20641;-83
2023/01/01 06:20:34;;;;;;;20.80;6.00;;;11.40;99.90;;;;;;5055633;28;20237;-82
2023/01/01 06:23:00;;;;;;;31.40;6.60;;;11.40;99.90;;;;;;5054919;28;20601;-82
2023/01/01 06:25:27;;;;;;;29.00;6.23;;;11.40;99.90;;;;;;5055186;28;20212;-84
2023/01/01 06:27:54;;;;;;;33.53;6.50;;;11.40;99.90;;;;;;5055534;28;20302;-83
2023/01/01 06:30:21;;;;;;;31.07;6.27;;;11.40;99.90;;;;;;5054147;28;20301;-83
2023/01/01 06:32:48;;;;;;;30.50;6.93;;;11.40;99.90;;;;;;5058144;28;20229;-84
2023/01/01 06:35:15;;;;;;;27.03;6.13;;;11.30;99.90;;;;;;5056475;28;20580;-84
2023/01/01 06:37:43;;;;;;;33.30;6.63;;;11.30;99.90;;;;;;5058736;28;20669;-84
2023/01/01 06:40:11;;;;;;;32.70;6.97;;;11.30;99.90;;;;;;5075930;28;20288;-83
2023/01/01 06:42:38;;;;;;;33.80;6.57;;;11.30;99.90;;;;;;5075218;28;20202;-82
2023/01/01 06:45:05;;;;;;;31.40;5.90;;;11.30;99.90;;;;;;5075048;28;20316;-83
2023/01/01 06:47:34;;;;;;;30.23;6.73;;;11.30;99.90;;;;;;5059209;28;20210;-84
2023/01/01 06:50:01;;;;;;;22.53;5.40;;;11.30;99.90;;;;;;5055485;28;20585;-85
2023/01/01 06:52:28;;;;;;;38.27;7.07;;;11.30;99.90;;;;;;5054994;28;20236;-84
2023/01/01 06:54:56;;;;;;;25.33;5.70;;;11.30;99.90;;;;;;5054327;28;20230;-83
2023/01/01 06:57:24;;;;;;;31.43;6.70;;;11.20;99.90;;;;;;5053371;28;20427;-86
2023/01/01 06:59:51;;;;;;;37.73;7.53;;;11.20;99.90;;;;;;5053004;28;20226;-84
2023/01/01 07:02:18;;;;;;;25.97;6.40;;;11.20;99.90;;;;;;5054959;28;20610;-84
2023/01/01 07:04:45;;;;;;;34.37;5.70;;;11.20;99.90;;;;;;5054942;28;20516;-85
2023/01/01 07:07:12;;;;;;;32.87;6.73;;;11.10;99.90;;;;;;5052954;28;20229;-84
2023/01/01 07:09:39;;;;;;;31.63;6.87;;;11.10;99.90;;;;;;5054525;28;20208;-84
2023/01/01 07:12:08;;;;;;;30.27;5.70;;;11.10;99.90;;;;;;5074390;28;20189;-83
2023/01/01 07:14:34;;;;;;;31.37;6.13;;;11.10;99.90;;;;;;5074792;28;20577;-84
2023/01/01 07:17:01;;;;;;;31.17;5.90;;;11.10;99.90;;;;;;5060564;28;20236;-85
2023/01/01 07:19:28;;;;;;;33.63;6.77;;;11.10;99.90;;;;;;5054625;28;20320;-84
2023/01/01 07:21:55;;;;;;;28.20;6.43;;;11.10;99.90;;;;;;5069742;28;20243;-84
2023/01/01 07:24:22;;;;;;;30.00;6.20;;;11.00;99.90;;;;;;5071566;28;20301;-85
2023/01/01 07:26:49;;;;;;;34.27;7.70;;;11.10;99.90;;;;;;5054421;28;20202;-86
2023/01/01 07:29:17;;;;;;;32.73;7.60;;;11.00;99.90;;;;;;5054716;28;20281;-83
2023/01/01 07:31:44;;;;;;;30.43;8.20;;;11.10;99.90;;;;;;5054638;28;20289;-84
2023/01/01 07:34:14;;;;;;;34.63;6.87;;;11.10;99.90;;;;;;5054722;28;20210;-82
2023/01/01 07:36:41;;;;;;;27.30;6.23;;;11.00;99.90;;;;;;5054119;28;20210;-84
2023/01/01 07:39:08;;;;;;;30.43;6.90;;;11.00;99.90;;;;;;5054663;28;20524;-86
2023/01/01 07:41:35;;;;;;;29.67;6.90;;;11.00;99.90;;;;;;5053993;28;20634;-81
2023/01/01 07:44:02;;;;;;;32.40;6.47;;;11.00;99.90;;;;;;5054434;28;20222;-84
2023/01/01 07:46:30;;;;;;;36.40;7.90;;;11.00;99.90;;;;;;5054210;28;20677;-83
2023/01/01 07:48:57;;;;;;;37.73;8.03;;;10.90;99.90;;;;;;5053556;28;20555;-84
2023/01/01 07:51:24;;;;;;;33.87;7.60;;;10.90;99.90;;;;;;5063273;28;20296;-83
2023/01/01 07:53:51;;;;;;;37.57;7.07;;;10.90;99.90;;;;;;5055995;28;20190;-86
2023/01/01 07:56:18;;;;;;;34.70;7.10;;;10.90;99.90;;;;;;5052983;28;20273;-84
2023/01/01 07:58:45;;;;;;;33.20;6.73;;;10.90;99.90;;;;;;5059430;28;20203;-83
2023/01/01 08:01:13;;;;;;;33.60;7.60;;;10.90;99.90;;;;;;5067061;28;20641;-82
2023/01/01 08:03:42;;;;;;;32.03;6.30;;;10.90;99.90;;;;;;5053732;28;20224;-84
2023/01/01 08:06:09;;;;;;;37.83;7.37;;;10.90;99.90;;;;;;5053476;28;20202;-83
2023/01/01 08:08:37;;;;;;;28.83;6.63;;;10.80;99.90;;;;;;5053075;28;20561;-81
2023/01/01 08:11:04;;;;;;;24.50;5.80;;;10.80;99.90;;;;;;5052672;28;20209;-82
2023/01/01 08:13:31;;;;;;;30.03;5.57;;;10.80;99.90;;;;;;5053055;28;20547;-84
2023/01/01 08:15:59;;;;;;;26.77;5.27;;;10.80;99.90;;;;;;5052703;28;20244;-83
2023/01/01 08:18:26;;;;;;;33.13;7.27;;;10.80;99.90;;;;;;5060388;28;20524;-83
2023/01/01 08:20:56;;;;;;;31.93;5.83;;;10.70;99.90;;;;;;5073543;28;20197;-84
2023/01/01 08:23:23;;;;;;;29.87;6.13;;;10.70;99.90;;;;;;5070385;28;20229;-85
2023/01/01 08:25:51;;;;;;;34.37;6.87;;;10.70;99.90;;;;;;5080377;28;20235;-83
2023/01/01 08:28:18;;;;;;;33.90;6.23;;;10.70;99.90;;;;;;5084518;28;20201;-83
2023/01/01 08:30:45;;;;;;;27.03;5.97;;;10.70;99.90;;;;;;5081346;28;20254;-84
2023/01/01 08:33:12;;;;;;;31.27;6.40;;;10.70;99.90;;;;;;5075234;28;20204;-80
2023/01/01 08:35:42;;;;;;;39.03;7.07;;;10.70;99.90;;;;;;5067576;28;20849;-84
2023/01/01 08:38:12;;;;;;;35.80;6.43;;;10.70;99.90;;;;;;5071822;28;20293;-83
2023/01/01 08:40:40;;;;;;;31.60;6.10;;;10.70;99.90;;;;;;5074250;28;20224;-85
2023/01/01 08:43:07;;;;;;;28.53;6.83;;;10.70;99.90;;;;;;5075668;28;20664;-87
2023/01/01 08:45:38;;;;;;;37.40;7.37;;;10.70;99.90;;;;;;5041201;28;20236;-84
2023/01/01 08:48:06;;;;;;;27.97;5.87;;;10.70;99.90;;;;;;5057849;28;20252;-83
2023/01/01 08:50:33;;;;;;;28.10;6.30;;;10.70;99.90;;;;;;5056631;28;20234;-83
2023/01/01 08:53:00;;;;;;;29.27;6.43;;;10.70;99.90;;;;;;5064656;28;20201;-84
2023/01/01 08:55:30;;;;;;;30.63;6.30;;;10.70;99.90;;;;;;5077516;28;20229;-82
2023/01/01 08:57:57;;;;;;;24.33;6.30;;;10.70;99.90;;;;;;5055568;28;20202;-85
2023/01/01 09:00:25;;;;;;;28.60;6.00;;;10.80;99.90;;;;;;5056964;28;20259;-86
2023/01/01 09:02:51;;;;;;;22.97;5.33;;;10.80;99.90;;;;;;5074423;28;20201;-84
2023/01/01 09:05:18;;;;;;;24.77;5.40;;;10.80;99.90;;;;;;5076878;28;20278;-84
2023/01/01 09:07:45;;;;;;;24.20;5.63;;;10.80;99.90;;;;;;5077256;28;20204;-83
2023/01/01 09:10:12;;;;;;;26.60;5.03;;;10.80;99.90;;;;;;5072045;28;20240;-83
2023/01/01 09:12:41;;;;;;;25.43;5.63;;;10.80;99.90;;;;;;5070138;28;20219;-82
2023/01/01 09:15:15;;;;;;;34.07;5.43;;;10.90;99.90;;;;;;5096644;28;20580;-83
2023/01/01 09:17:42;;;;;;;30.37;5.57;;;10.90;99.90;;;;;;5077028;28;20678;-81
2023/01/01 09:20:11;;;;;;;29.60;5.90;;;10.90;99.90;;;;;;5069927;28;20264;-83
2023/01/01 09:22:38;;;;;;;29.43;5.93;;;10.90;99.90;;;;;;5070308;28;20843;-82
2023/01/01 09:25:05;;;;;;;21.03;5.23;;;10.90;99.90;;;;;;5069865;28;20225;-82
2023/01/01 09:27:32;;;;;;;21.83;4.27;;;11.00;99.90;;;;;;5071881;28;20229;-80
2023/01/01 09:30:01;;;;;;;21.00;5.00;;;11.00;99.90;;;;;;5065485;28;20655;-82
2023/01/01 09:32:28;;;;;;;20.70;4.80;;;11.00;99.90;;;;;;5072770;28;20271;-84
2023/01/01 09:34:56;;;;;;;20.47;4.30;;;11.00;99.90;;;;;;5047497;28;20211;-84
2023/01/01 09:37:23;;;;;;;21.03;4.27;;;11.10;99.90;;;;;;5071868;28;20257;-82
2023/01/01 09:39:50;;;;;;;21.20;4.80;;;11.10;99.90;;;;;;5074648;28;20276;-84
2023/01/01 09:42:26;;;;;;;22.73;4.60;;;11.10;99.90;;;;;;5073574;28;20203;-83
2023/01/01 09:45:14;;;;;;;20.30;4.20;;;11.10;99.90;;;;;;5070151;28;20212;-81
2023/01/01 09:47:45;;;;;;;24.80;4.37;;;11.10;99.90;;;;;;5071644;28;20209;-80
2023/01/01 09:50:15;;;;;;;20.53;4.60;;;11.10;99.90;;;;;;5070742;28;20293;-81
2023/01/01 09:52:48;;;;;;;16.40;3.73;;;11.10;99.90;;;;;;5072940;28;20519;-81
2023/01/01 09:55:28;;;;;;;26.67;4.93;;;11.10;99.90;;;;;;5068377;28;20204;-80
2023/01/01 09:57:56;;;;;;;22.23;4.97;;;11.10;99.90;;;;;;5072621;28;20297;-81
2023/01/01 10:00:25;;;;;;;32.13;5.93;;;11.10;99.90;;;;;;5071509;28;20204;-81
2023/01/01 10:03:17;;;;;;;38.57;6.70;;;11.10;99.90;;;;;;5071306;28;20197;-82
2023/01/01 10:05:53;;;;;;;27.47;4.87;;;11.10;99.90;;;;;;5064630;28;20231;-83
2023/01/01 10:08:31;;;;;;;25.43;5.13;;;11.20;99.90;;;;;;5072426;28;20212;-81
2023/01/01 10:11:09;;;;;;;20.60;4.57;;;11.20;99.90;;;;;;5064756;28;20197;-83
2023/01/01 10:13:41;;;;;;;24.37;4.53;;;11.20;99.90;;;;;;5070758;28;20205;-82
2023/01/01 10:16:17;;;;;;;25.83;4.77;;;11.30;99.90;;;;;;5071608;28;20221;-83
2023/01/01 10:18:47;;;;;;;22.30;5.87;;;11.30;99.90;;;;;;5073903;28;20699;-80
2023/01/01 10:21:18;;;;;;;15.53;3.70;;;11.30;99.90;;;;;;5092282;28;20200;-81
2023/01/01 10:23:48;;;;;;;22.03;3.93;;;11.40;99.90;;;;;;5082125;28;20213;-82
2023/01/01 10:26:19;;;;;;;20.23;5.07;;;11.30;99.90;;;;;;5076246;28;20245;-83
2023/01/01 10:28:51;;;;;;;22.80;3.87;;;11.40;99.90;;;;;;5076405;28;20267;-81
2023/01/01 10:31:28;;;;;;;19.70;3.50;;;11.40;99.90;;;;;;5057576;28;20205;-82
2023/01/01 10:33:55;;;;;;;19.23;3.93;;;11.40;99.90;;;;;;5053813;28;20190;-80
2023/01/01 10:36:22;;;;;;;18.80;3.93;;;11.50;99.90;;;;;;5066556;28;20194;-84
2023/01/01 10:38:50;;;;;;;19.23;4.30;;;11.50;99.90;;;;;;5054109;28;20285;-84
2023/01/01 10:41:17;;;;;;;20.27;3.83;;;11.50;99.90;;;;;;5054993;28;20202;-85
2023/01/01 10:43:45;;;;;;;16.07;4.00;;;11.50;99.90;;;;;;5053781;28;20281;-81
2023/01/01 10:46:14;;;;;;;19.70;3.67;;;11.50;99.90;;;;;;5054135;28;20232;-82
2023/01/01 10:49:04;;;;;;;17.13;4.10;;;11.50;99.90;;;;;;5054005;28;20212;-81
2023/01/01 10:51:32;;;;;;;30.70;5.27;;;11.60;99.90;;;;;;5053283;28;20216;-81
2023/01/01 10:53:59;;;;;;;22.77;4.13;;;11.60;99.90;;;;;;5054317;28;20292;-82
2023/01/01 10:56:40;;;;;;;21.43;3.90;;;11.60;99.90;;;;;;5054264;28;20197;-83
2023/01/01 10:59:37;;;;;;;15.43;3.57;;;11.70;99.90;;;;;;5054360;28;20205;-81
2023/01/01 11:02:19;;;;;;;20.20;3.70;;;11.80;99.90;;;;;;5054608;28;20281;-82
2023/01/01 11:04:48;;;;;;;23.03;4.63;;;11.80;99.90;;;;;;5053346;28;20227;-82
2023/01/01 11:07:21;;;;;;;22.00;4.13;;;11.90;99.90;;;;;;5054525;28;20212;-81
2023/01/01 11:09:49;;;;;;;14.83;3.47;;;11.90;99.90;;;;;;5054175;28;20210;-85
2023/01/01 11:12:20;;;;;;;19.10;3.50;;;12.00;99.90;;;;;;5053741;28;20289;-83
2023/01/01 11:14:52;;;;;;;11.37;3.10;;;12.10;99.90;;;;;;5054150;28;20236;-83
2023/01/01 11:17:22;;;;;;;15.70;3.67;;;12.10;99.90;;;;;;5054262;28;20217;-84
2023/01/01 11:19:51;;;;;;;14.93;3.80;;;12.10;99.90;;;;;;5053972;28;20217;-83
2023/01/01 11:22:35;;;;;;;20.20;3.50;;;12.20;99.90;;;;;;5074203;28;20241;-86
2023/01/01 11:25:03;;;;;;;17.77;4.07;;;12.30;99.90;;;;;;5073836;28;20209;-81
2023/01/01 11:27:30;;;;;;;13.93;3.87;;;12.40;99.90;;;;;;5073586;28;20277;-83
2023/01/01 11:30:23;;;;;;;16.43;3.73;;;12.40;99.90;;;;;;5058158;28;20288;-82
2023/01/01 11:32:53;;;;;;;22.37;3.70;;;12.50;99.90;;;;;;5047053;28;20685;-82
2023/01/01 11:35:24;;;;;;;20.23;4.30;;;12.60;99.90;;;;;;5052290;28;20919;-83
2023/01/01 11:37:52;;;;;;;18.90;3.80;;;12.70;99.90;;;;;;5052093;28;20214;-82
2023/01/01 11:40:22;;;;;;;19.10;3.60;;;12.70;99.90;;;;;;5051207;28;20288;-81
2023/01/01 11:42:52;;;;;;;18.27;4.30;;;12.70;99.90;;;;;;5051715;28;20198;-80
2023/01/01 11:45:21;;;;;;;22.87;4.73;;;12.70;99.90;;;;;;5071496;28;20333;-82
2023/01/01 11:47:54;;;;;;;19.20;3.60;;;12.70;99.90;;;;;;5063942;28;20280;-83
2023/01/01 11:50:29;;;;;;;20.53;4.20;;;12.70;99.90;;;;;;5050313;28;20194;-81
2023/01/01 11:52:58;;;;;;;20.23;4.70;;;12.70;99.90;;;;;;5052533;28;20281;-83
2023/01/01 11:55:36;;;;;;;21.13;3.43;;;12.70;99.90;;;;;;5052372;28;20196;-82
2023/01/01 11:58:11;;;;;;;20.23;4.30;;;12.70;99.90;;;;;;5053798;28;20202;-81
2023/01/01 12:00:38;;;;;;;20.97;4.80;;;12.70;99.90;;;;;;5052483;28;20217;-82
2023/01/01 12:03:17;;;;;;;19.90;3.90;;;12.70;99.90;;;;;;5052159;28;20653;-83
2023/01/01 12:05:52;;;;;;;19.93;3.93;;;12.70;99.90;;;;;;5053260;28;20233;-85
2023/01/01 12:08:27;;;;;;;16.93;3.73;;;12.60;99.90;;;;;;5053537;28;20796;-83
2023/01/01 12:10:58;;;;;;;20.93;4.90;;;12.70;99.90;;;;;;5054160;28;20247;-83
2023/01/01 12:13:28;;;;;;;20.33;4.03;;;12.60;99.90;;;;;;5053616;28;20311;-83
2023/01/01 12:16:06;;;;;;;14.53;3.63;;;12.60;99.90;;;;;;5052825;28;20275;-84
2023/01/01 12:18:39;;;;;;;23.73;3.70;;;12.60;99.90;;;;;;5053061;28;20353;-83
2023/01/01 12:21:15;;;;;;;22.13;4.37;;;12.60;99.90;;;;;;5052913;28;20186;-85
2023/01/01 12:23:43;;;;;;;18.77;4.03;;;12.60;99.90;;;;;;5053030;28;20226;-79
2023/01/01 12:26:19;;;;;;;20.53;4.00;;;12.60;99.90;;;;;;5053503;28;20226;-85
2023/01/01 12:29:12;;;;;;;21.90;4.23;;;12.60;99.90;;;;;;5052926;28;20220;-85
2023/01/01 12:31:45;;;;;;;20.37;3.60;;;12.60;99.90;;;;;;5038367;28;20269;-83
2023/01/01 12:34:19;;;;;;;22.87;4.37;;;12.60;99.90;;;;;;5053532;28;20289;-84
2023/01/01 12:36:55;;;;;;;18.17;3.80;;;12.60;99.90;;;;;;5052742;28;20196;-84
2023/01/01 12:39:55;;;;;;;16.43;3.40;;;12.60;99.90;;;;;;5067093;28;20223;-81
2023/01/01 12:42:34;;;;;;;13.17;4.13;;;12.50;99.90;;;;;;5064363;28;20673;-83
2023/01/01 12:45:17;;;;;;;12.53;3.30;;;12.50;99.90;;;;;;5067689;28;20216;-83
2023/01/01 12:47:54;;;;;;;14.07;4.10;;;12.60;99.90;;;;;;5072416;28;20752;-85
2023/01/01 12:50:34;;;;;;;19.67;4.10;;;12.50;99.90;;;;;;5072349;28;20621;-84
2023/01/01 12:53:17;;;;;;;18.20;4.00;;;12.50;99.90;;;;;;5057746;28;20308;-80
2023/01/01 12:56:12;;;;;;;15.00;4.13;;;12.50;99.90;;;;;;5052726;28;20533;-81
2023/01/01 12:58:42;;;;;;;21.47;5.27;;;12.50;99.90;;;;;;5052608;28;20557;-83